Time;durP1;ratioP1;P1;durP2;ratioP2;P2;SDS_P1;SDS_P2;PMS_P1;PMS_P2;Temp;Humidity;BMP_temperature;BMP_pressure;BME280_temperature;BME280_humidity;BME280_pressure;Samples;Min_cycle;Max_cycle;Signal;HPM_P1;HPM_P2
2022/09/22 00:02:04;;;;;;;3.33;2.47;;;9.30;99.90;;;;;;5055309;28;20017;-79
2022/09/22 00:04:29;;;;;;;2.90;2.67;;;9.30;99.90;;;;;;5049031;28;20037;-78
2022/09/22 00:06:56;;;;;;;4.07;2.55;;;9.30;99.90;;;;;;5046493;28;20097;-79
2022/09/22 00:09:21;;;;;;;2.05;1.80;;;9.20;99.90;;;;;;5056483;28;20067;-79
2022/09/22 00:11:50;;;;;;;3.22;2.65;;;9.30;99.90;;;;;;5057565;28;20029;-79
2022/09/22 00:14:19;;;;;;;3.15;2.85;;;9.20;99.90;;;;;;5057635;28;20104;-81
2022/09/22 00:16:51;;;;;;;4.93;2.70;;;9.20;99.90;;;;;;5060462;28;20032;-79
2022/09/22 00:19:21;;;;;;;3.05;2.75;;;9.20;99.90;;;;;;5069650;28;20465;-79
2022/09/22 00:21:47;;;;;;;4.60;3.17;;;9.10;99.90;;;;;;5069356;28;20044;-78
2022/09/22 00:24:14;;;;;;;2.88;2.67;;;9.10;99.90;;;;;;5068567;28;20615;-78
2022/09/22 00:26:40;;;;;;;3.20;2.90;;;9.10;99.90;;;;;;5071810;28;20073;-79
2022/09/22 00:29:08;;;;;;;3.33;2.97;;;9.10;99.90;;;;;;5073645;28;20048;-79
2022/09/22 00:31:38;;;;;;;5.93;2.67;;;9.00;99.90;;;;;;5067161;28;20032;-80
2022/09/22 00:34:04;;;;;;;4.07;2.97;;;9.00;99.90;;;;;;5054144;28;20024;-80
2022/09/22 00:36:30;;;;;;;3.20;2.90;;;9.00;99.90;;;;;;5054184;28;20028;-79
2022/09/22 00:38:57;;;;;;;6.03;3.05;;;9.00;99.90;;;;;;5054539;28;20033;-80
2022/09/22 00:41:39;;;;;;;9.68;3.35;;;9.00;99.90;;;;;;5039598;28;20021;-79
2022/09/22 00:44:25;;;;;;;3.95;3.20;;;9.00;99.90;;;;;;5055106;28;20082;-80
2022/09/22 00:47:03;;;;;;;3.30;3.00;;;8.90;99.90;;;;;;5053819;28;20025;-79
2022/09/22 00:49:45;;;;;;;5.68;3.28;;;8.90;99.90;;;;;;5052543;28;20025;-80
2022/09/22 00:52:14;;;;;;;4.07;3.58;;;8.90;99.90;;;;;;5054038;28;20556;-79
2022/09/22 00:54:40;;;;;;;5.53;3.78;;;8.90;99.90;;;;;;5039902;28;20072;-79
2022/09/22 00:57:14;;;;;;;4.18;3.40;;;8.90;99.90;;;;;;5053703;28;20033;-79
2022/09/22 00:59:43;;;;;;;3.88;3.53;;;8.90;99.90;;;;;;5054560;28;20075;-79
2022/09/22 01:02:09;;;;;;;5.78;3.65;;;8.90;99.90;;;;;;5053718;28;20025;-79
2022/09/22 01:04:35;;;;;;;3.97;3.65;;;8.90;99.90;;;;;;5046868;28;20022;-79
2022/09/22 01:07:02;;;;;;;4.97;3.30;;;8.80;99.90;;;;;;5046679;28;20059;-80
2022/09/22 01:09:31;;;;;;;5.85;3.78;;;8.90;99.90;;;;;;5052822;28;20380;-79
2022/09/22 01:11:58;;;;;;;5.65;3.20;;;8.80;99.90;;;;;;5053896;28;20029;-79
2022/09/22 01:14:49;;;;;;;5.15;3.72;;;8.80;99.90;;;;;;5053239;28;20497;-79
2022/09/22 01:17:35;;;;;;;4.20;3.80;;;8.80;99.90;;;;;;5053276;28;20021;-80
2022/09/22 01:20:11;;;;;;;5.10;3.95;;;8.80;99.90;;;;;;5041885;28;20065;-80
2022/09/22 01:23:04;;;;;;;7.00;3.88;;;8.80;99.90;;;;;;5053033;28;20021;-79
2022/09/22 01:25:39;;;;;;;4.43;4.03;;;8.70;99.90;;;;;;5053196;28;20064;-79
2022/09/22 01:28:35;;;;;;;4.80;4.30;;;8.70;99.90;;;;;;5052669;28;20128;-80
2022/09/22 01:31:24;;;;;;;7.07;4.15;;;8.70;99.90;;;;;;5052502;28;20107;-80
2022/09/22 01:34:18;;;;;;;4.35;3.95;;;8.70;99.90;;;;;;5052757;28;20493;-80
2022/09/22 01:37:05;;;;;;;3.60;3.30;;;8.70;99.90;;;;;;5052575;28;20473;-80
2022/09/22 01:39:42;;;;;;;3.65;3.10;;;8.70;99.90;;;;;;5052541;28;20456;-80
2022/09/22 01:42:23;;;;;;;4.40;3.22;;;8.60;99.90;;;;;;5052761;28;20040;-79
2022/09/22 01:44:58;;;;;;;3.50;3.17;;;8.60;99.90;;;;;;5051912;28;20049;-79
2022/09/22 01:47:39;;;;;;;7.30;3.70;;;8.60;99.90;;;;;;5052567;28;20021;-79
2022/09/22 01:50:26;;;;;;;5.10;3.42;;;8.60;99.90;;;;;;5049871;28;20095;-79
2022/09/22 01:52:54;;;;;;;3.45;3.15;;;8.50;99.90;;;;;;5044855;28;20029;-79
2022/09/22 01:55:58;;;;;;;2.97;2.70;;;8.50;99.90;;;;;;5053129;28;20445;-78
2022/09/22 01:58:30;;;;;;;3.47;3.15;;;8.50;99.90;;;;;;5052461;28;20381;-80
2022/09/22 02:01:17;;;;;;;4.18;3.20;;;8.50;99.90;;;;;;5053507;28;20071;-80
2022/09/22 02:03:55;;;;;;;4.82;3.70;;;8.50;99.90;;;;;;5052737;28;20017;-81
2022/09/22 02:06:30;;;;;;;4.45;4.05;;;8.50;99.90;;;;;;5039893;28;20021;-80
2022/09/22 02:09:04;;;;;;;6.88;4.03;;;8.40;99.90;;;;;;5053134;28;20094;-79
2022/09/22 02:11:30;;;;;;;6.20;4.43;;;8.50;99.90;;;;;;5053192;28;20036;-80
2022/09/22 02:13:56;;;;;;;4.93;4.03;;;8.40;99.90;;;;;;5053537;28;20029;-81
2022/09/22 02:16:23;;;;;;;5.05;4.55;;;8.40;99.90;;;;;;5052179;28;20037;-79
2022/09/22 02:18:54;;;;;;;6.93;5.35;;;8.40;99.90;;;;;;5053183;28;20507;-80
2022/09/22 02:21:23;;;;;;;8.55;6.43;;;8.40;99.90;;;;;;5052839;28;20029;-80
2022/09/22 02:23:49;;;;;;;8.48;6.50;;;8.40;99.90;;;;;;5053594;28;20029;-80
2022/09/22 02:26:22;;;;;;;10.02;6.57;;;8.40;99.90;;;;;;5048993;28;20017;-79
2022/09/22 02:29:07;;;;;;;9.85;7.05;;;8.40;99.90;;;;;;5042187;28;20558;-80
2022/09/22 02:31:36;;;;;;;7.93;7.03;;;8.50;99.90;;;;;;5052387;28;20457;-80
2022/09/22 02:34:03;;;;;;;10.40;7.70;;;8.50;99.90;;;;;;5052313;28;20106;-78
2022/09/22 02:36:54;;;;;;;11.48;8.45;;;8.50;99.90;;;;;;5051712;28;20024;-79
2022/09/22 02:39:33;;;;;;;12.05;9.38;;;8.50;99.90;;;;;;5053361;28;20032;-80
2022/09/22 02:41:59;;;;;;;13.52;10.60;;;8.50;99.90;;;;;;5052602;28;20385;-79
2022/09/22 02:44:34;;;;;;;14.57;10.25;;;8.50;99.90;;;;;;5053284;28;20021;-80
2022/09/22 02:47:16;;;;;;;13.65;9.80;;;8.60;99.90;;;;;;5039588;28;20026;-79
2022/09/22 02:49:42;;;;;;;18.50;12.27;;;8.60;99.90;;;;;;5052812;28;20516;-79
2022/09/22 02:52:12;;;;;;;14.05;10.55;;;8.60;99.90;;;;;;5053281;28;20028;-80
2022/09/22 02:54:38;;;;;;;12.47;10.93;;;8.60;99.90;;;;;;5040702;28;20025;-80
2022/09/22 02:57:05;;;;;;;15.40;11.55;;;8.70;99.90;;;;;;5041422;28;20041;-80
2022/09/22 02:59:31;;;;;;;11.90;10.55;;;8.70;99.90;;;;;;5035523;28;20037;-80
2022/09/22 03:01:56;;;;;;;14.73;10.80;;;8.70;99.90;;;;;;5049594;28;20376;-79
2022/09/22 03:04:22;;;;;;;11.85;10.32;;;8.60;99.90;;;;;;5039546;28;20026;-81
2022/09/22 03:06:47;;;;;;;10.00;9.00;;;8.60;99.90;;;;;;5053212;28;20021;-80
2022/09/22 03:09:15;;;;;;;13.68;8.73;;;8.60;99.90;;;;;;5052647;28;20392;-80
2022/09/22 03:11:41;;;;;;;11.13;8.32;;;8.50;99.90;;;;;;5047855;28;20022;-80
2022/09/22 03:14:07;;;;;;;10.75;8.95;;;8.50;99.90;;;;;;5048846;28;20033;-80
2022/09/22 03:16:33;;;;;;;12.38;9.15;;;8.50;99.90;;;;;;5056019;28;20381;-79
2022/09/22 03:18:58;;;;;;;11.07;9.75;;;8.50;99.90;;;;;;5057648;28;20380;-79
2022/09/22 03:21:24;;;;;;;10.40;8.70;;;8.50;99.90;;;;;;5055372;28;20124;-80
2022/09/22 03:23:50;;;;;;;11.13;8.10;;;8.50;99.90;;;;;;5055112;28;20057;-79
2022/09/22 03:26:15;;;;;;;9.25;7.15;;;8.40;99.90;;;;;;5055300;28;20469;-79
2022/09/22 03:28:42;;;;;;;7.95;5.97;;;8.40;99.90;;;;;;5035467;28;20080;-80
2022/09/22 03:31:09;;;;;;;7.75;6.45;;;8.40;99.90;;;;;;5046131;28;20048;-79
2022/09/22 03:33:35;;;;;;;11.63;6.28;;;8.40;99.90;;;;;;5055090;28;20025;-80
2022/09/22 03:36:01;;;;;;;6.15;5.65;;;8.30;99.90;;;;;;5055001;28;20021;-79
2022/09/22 03:38:26;;;;;;;9.02;6.97;;;8.30;99.90;;;;;;5054639;28;20035;-79
2022/09/22 03:40:53;;;;;;;5.82;5.32;;;8.30;99.90;;;;;;5057038;28;20476;-78
2022/09/22 03:43:19;;;;;;;5.30;4.82;;;8.20;99.90;;;;;;5055143;28;20112;-79
2022/09/22 03:45:44;;;;;;;9.35;5.00;;;8.20;99.90;;;;;;5054295;28;20020;-80
2022/09/22 03:48:10;;;;;;;5.60;5.10;;;8.20;99.90;;;;;;5055323;28;20032;-80
2022/09/22 03:50:35;;;;;;;7.78;5.78;;;8.20;99.90;;;;;;5053637;28;20365;-79
2022/09/22 03:53:01;;;;;;;11.02;8.45;;;8.10;99.90;;;;;;5056984;28;20037;-78
2022/09/22 03:55:26;;;;;;;11.02;9.43;;;8.10;99.90;;;;;;5055628;28;20384;-78
2022/09/22 03:57:52;;;;;;;15.45;12.13;;;8.10;99.90;;;;;;5054587;28;20017;-77
2022/09/22 04:00:20;;;;;;;16.40;12.32;;;8.20;99.90;;;;;;5054875;28;20039;-78
2022/09/22 04:02:46;;;;;;;17.38;12.43;;;8.20;99.90;;;;;;5049524;28;20045;-77
2022/09/22 04:05:12;;;;;;;21.45;14.63;;;8.20;99.90;;;;;;5045216;28;20554;-78
2022/09/22 04:07:37;;;;;;;18.20;14.10;;;8.30;99.90;;;;;;5055072;28;20024;-77
2022/09/22 04:10:03;;;;;;;16.70;14.05;;;8.20;99.90;;;;;;5055207;28;20020;-78
2022/09/22 04:12:29;;;;;;;17.08;14.90;;;8.30;99.90;;;;;;5054162;28;20028;-77
2022/09/22 04:14:55;;;;;;;20.60;15.77;;;8.30;99.90;;;;;;5055107;28;20021;-78
2022/09/22 04:17:20;;;;;;;16.52;14.40;;;8.30;99.90;;;;;;5056005;28;20017;-78
2022/09/22 04:19:46;;;;;;;21.67;16.30;;;8.30;99.90;;;;;;5053865;28;20043;-79
2022/09/22 04:22:13;;;;;;;16.52;14.50;;;8.30;99.90;;;;;;5055668;28;20477;-78
2022/09/22 04:24:38;;;;;;;16.83;14.02;;;8.40;99.90;;;;;;5054487;28;20028;-78
2022/09/22 04:27:04;;;;;;;20.35;14.80;;;8.40;99.90;;;;;;5054040;28;20033;-77
2022/09/22 04:29:29;;;;;;;20.02;16.15;;;8.40;99.90;;;;;;5054252;28;20083;-77
2022/09/22 04:31:55;;;;;;;15.68;13.57;;;8.30;99.90;;;;;;5055785;28;20025;-78
2022/09/22 04:34:29;;;;;;;14.32;12.77;;;8.30;99.90;;;;;;5060879;28;20033;-78
2022/09/22 04:36:55;;;;;;;14.88;10.93;;;8.30;99.90;;;;;;5043622;28;20028;-77
2022/09/22 04:39:30;;;;;;;9.93;8.93;;;8.20;99.90;;;;;;5054508;28;20037;-79
2022/09/22 04:41:55;;;;;;;12.20;8.57;;;8.20;99.90;;;;;;5053267;28;20052;-79
2022/09/22 04:44:21;;;;;;;8.90;8.10;;;8.20;99.90;;;;;;5053991;28;20473;-77
2022/09/22 04:46:48;;;;;;;8.43;7.35;;;8.10;99.90;;;;;;5052547;28;20076;-79
2022/09/22 04:49:16;;;;;;;9.00;6.80;;;8.10;99.90;;;;;;5053797;28;20025;-79
2022/09/22 04:51:43;;;;;;;7.07;6.47;;;8.10;99.90;;;;;;5053124;28;20033;-77
2022/09/22 04:54:09;;;;;;;7.88;7.25;;;8.00;99.90;;;;;;5053121;28;20021;-78
2022/09/22 04:56:35;;;;;;;7.63;6.88;;;8.00;99.90;;;;;;5053097;28;20384;-77
2022/09/22 04:59:01;;;;;;;8.13;6.30;;;7.90;99.90;;;;;;5053530;28;20037;-79
2022/09/22 05:01:26;;;;;;;7.32;5.90;;;7.90;99.90;;;;;;5053278;28;20021;-76
2022/09/22 05:03:52;;;;;;;8.30;6.32;;;7.90;99.90;;;;;;5039955;28;20044;-78
2022/09/22 05:06:18;;;;;;;6.65;6.05;;;7.80;99.90;;;;;;5040651;28;20542;-78
2022/09/22 05:08:44;;;;;;;7.05;6.45;;;7.80;99.90;;;;;;5053313;28;20029;-78
2022/09/22 05:11:09;;;;;;;6.25;5.40;;;7.80;99.90;;;;;;5052210;28;20021;-77
2022/09/22 05:13:37;;;;;;;6.47;5.82;;;7.80;99.90;;;;;;5052848;28;20135;-77
2022/09/22 05:16:04;;;;;;;9.13;6.38;;;7.80;99.90;;;;;;5046558;28;20033;-76
2022/09/22 05:18:31;;;;;;;7.88;7.18;;;7.70;99.90;;;;;;5031869;28;20112;-77
2022/09/22 05:20:56;;;;;;;7.53;6.82;;;7.70;99.90;;;;;;5031561;28;20029;-76
2022/09/22 05:23:24;;;;;;;9.65;8.25;;;7.70;99.90;;;;;;5030664;28;20029;-76
2022/09/22 05:25:50;;;;;;;9.25;8.40;;;7.70;99.90;;;;;;5031306;28;20508;-76
2022/09/22 05:28:16;;;;;;;9.63;8.70;;;7.70;99.90;;;;;;5031551;28;20144;-77
2022/09/22 05:30:41;;;;;;;11.23;9.18;;;7.60;99.90;;;;;;5030528;28;20022;-77
2022/09/22 05:33:07;;;;;;;8.57;7.28;;;7.70;99.90;;;;;;5031581;28;20029;-78
2022/09/22 05:35:32;;;;;;;9.00;7.97;;;7.70;99.90;;;;;;5031431;28;20104;-77
2022/09/22 05:37:58;;;;;;;9.90;8.88;;;7.70;99.90;;;;;;5031223;28;20384;-77
2022/09/22 05:40:25;;;;;;;9.30;8.38;;;7.70;99.90;;;;;;5031373;28;20037;-77
2022/09/22 05:42:52;;;;;;;11.18;9.52;;;7.70;99.90;;;;;;5035237;28;20024;-77
2022/09/22 05:45:19;;;;;;;10.68;9.55;;;7.70;99.90;;;;;;5034813;28;20026;-78
2022/09/22 05:47:45;;;;;;;11.93;10.63;;;7.70;99.90;;;;;;5041091;28;20017;-78
2022/09/22 05:50:14;;;;;;;13.25;11.00;;;7.70;99.90;;;;;;5047341;28;20068;-78
2022/09/22 05:52:40;;;;;;;12.63;11.32;;;7.70;99.90;;;;;;5044449;28;20014;-79
2022/09/22 05:55:06;;;;;;;15.70;11.15;;;7.70;99.90;;;;;;5043259;28;20035;-78
2022/09/22 05:57:32;;;;;;;13.20;10.57;;;7.80;99.90;;;;;;5048551;28;20040;-78
2022/09/22 05:59:58;;;;;;;14.10;11.13;;;7.80;99.90;;;;;;5041290;28;20485;-78
2022/09/22 06:02:24;;;;;;;12.50;11.20;;;7.80;99.90;;;;;;5046455;28;20032;-78
2022/09/22 06:04:51;;;;;;;13.25;10.80;;;7.90;99.90;;;;;;5050575;28;20025;-78
2022/09/22 06:07:19;;;;;;;13.43;12.00;;;7.90;99.90;;;;;;5049390;28;20017;-78
2022/09/22 06:09:45;;;;;;;16.58;13.00;;;7.90;99.90;;;;;;5047601;28;20364;-77
2022/09/22 06:12:11;;;;;;;15.32;11.65;;;8.00;99.90;;;;;;5051437;28;20070;-77
2022/09/22 06:14:37;;;;;;;15.85;11.98;;;8.00;99.90;;;;;;5049485;28;20029;-77
2022/09/22 06:17:03;;;;;;;17.05;12.93;;;8.10;99.90;;;;;;5047600;28;20025;-79
2022/09/22 06:19:29;;;;;;;14.70;13.20;;;8.20;99.90;;;;;;5049413;28;20388;-78
2022/09/22 06:21:54;;;;;;;14.38;12.93;;;8.20;99.90;;;;;;5049783;28;20025;-78
2022/09/22 06:24:22;;;;;;;16.63;14.90;;;8.40;99.90;;;;;;5049979;28;20024;-77
2022/09/22 06:26:47;;;;;;;23.88;15.32;;;8.50;99.90;;;;;;5050008;28;20416;-77
2022/09/22 06:29:13;;;;;;;17.63;15.38;;;8.50;99.90;;;;;;5051914;28;20036;-78
2022/09/22 06:31:39;;;;;;;19.48;17.33;;;8.70;99.90;;;;;;5049540;28;20072;-78
2022/09/22 06:34:04;;;;;;;25.10;18.20;;;8.80;99.90;;;;;;5050130;28;20112;-78
2022/09/22 06:36:30;;;;;;;24.25;21.70;;;8.90;99.90;;;;;;5048326;28;20025;-77
2022/09/22 06:39:00;;;;;;;24.38;20.85;;;9.00;99.90;;;;;;5050498;28;20076;-76
2022/09/22 06:41:27;;;;;;;25.85;21.35;;;9.10;99.90;;;;;;5046622;28;20473;-79
2022/09/22 06:43:56;;;;;;;20.80;18.13;;;9.20;99.90;;;;;;5051558;28;20561;-79
2022/09/22 06:46:27;;;;;;;22.80;17.75;;;9.30;99.90;;;;;;5051042;28;20445;-78
2022/09/22 06:48:56;;;;;;;23.83;20.33;;;9.40;99.90;;;;;;5040408;28;20026;-79
2022/09/22 06:51:27;;;;;;;28.00;20.17;;;9.50;99.90;;;;;;5051536;28;20070;-79
2022/09/22 06:53:53;;;;;;;26.15;19.25;;;9.60;99.90;;;;;;5051448;28;20426;-77
2022/09/22 06:56:20;;;;;;;23.67;20.00;;;9.60;99.90;;;;;;5049018;28;20159;-76
2022/09/22 06:58:48;;;;;;;25.08;19.83;;;9.80;99.90;;;;;;5046292;28;20025;-76
2022/09/22 07:01:14;;;;;;;28.13;20.75;;;9.80;99.90;;;;;;5053507;28;20485;-76
2022/09/22 07:03:41;;;;;;;26.48;20.40;;;9.80;99.90;;;;;;5053495;28;20024;-77
2022/09/22 07:06:08;;;;;;;23.80;18.58;;;10.00;99.90;;;;;;5054423;28;20029;-77
2022/09/22 07:08:34;;;;;;;25.52;20.08;;;10.00;99.90;;;;;;5053929;28;20021;-77
2022/09/22 07:11:02;;;;;;;28.23;19.25;;;10.10;99.90;;;;;;5050262;28;20547;-77
2022/09/22 07:13:30;;;;;;;23.90;21.15;;;10.10;99.90;;;;;;5057780;28;20122;-77
2022/09/22 07:16:00;;;;;;;28.73;23.08;;;10.20;99.90;;;;;;5041176;28;20025;-78
2022/09/22 07:18:28;;;;;;;22.40;18.67;;;10.30;99.90;;;;;;5037457;28;20029;-78
2022/09/22 07:21:01;;;;;;;28.35;22.25;;;10.30;99.90;;;;;;5038623;28;20296;-77
2022/09/22 07:23:27;;;;;;;20.00;17.92;;;10.40;99.90;;;;;;5039085;28;20056;-78
2022/09/22 07:25:55;;;;;;;33.72;21.80;;;10.50;99.90;;;;;;5037709;28;20032;-78
2022/09/22 07:28:22;;;;;;;27.27;20.38;;;10.50;99.90;;;;;;5035533;28;20052;-77
2022/09/22 07:30:48;;;;;;;25.50;20.83;;;10.60;99.90;;;;;;5034869;28;20428;-78
2022/09/22 07:33:16;;;;;;;21.88;19.75;;;10.70;99.90;;;;;;5039437;28;20041;-78
2022/09/22 07:35:41;;;;;;;22.88;20.17;;;10.80;99.90;;;;;;5034500;28;20226;-77
2022/09/22 07:38:07;;;;;;;24.02;20.75;;;10.80;99.90;;;;;;5037200;28;20025;-77
2022/09/22 07:40:33;;;;;;;22.27;19.13;;;10.90;99.90;;;;;;5037608;28;20041;-80
2022/09/22 07:42:58;;;;;;;22.48;19.85;;;11.00;99.90;;;;;;5048283;28;20106;-77
2022/09/22 07:45:24;;;;;;;25.27;18.52;;;11.10;99.90;;;;;;5048514;28;20036;-76
2022/09/22 07:50:36;;;;;;;20.80;17.58;;;11.20;99.90;;;;;;5029801;28;20040;-75
2022/09/22 07:53:03;;;;;;;18.90;16.90;;;11.30;99.90;;;;;;5035288;28;20036;-76
2022/09/22 07:55:28;;;;;;;18.13;16.33;;;11.30;99.90;;;;;;5037635;28;20018;-76
2022/09/22 07:57:55;;;;;;;22.33;16.88;;;11.40;99.90;;;;;;5044648;28;20057;-77
2022/09/22 08:00:23;;;;;;;24.70;17.52;;;11.40;99.90;;;;;;5038405;28;20037;-76
2022/09/22 08:02:54;;;;;;;22.60;18.17;;;11.50;99.90;;;;;;5046105;28;20022;-75
2022/09/22 08:05:26;;;;;;;34.65;17.77;;;11.60;99.90;;;;;;5047342;28;20029;-75
2022/09/22 08:07:54;;;;;;;28.02;19.17;;;11.60;99.90;;;;;;5054831;28;20049;-77
2022/09/22 08:10:20;;;;;;;19.52;17.23;;;11.70;99.90;;;;;;5055614;28;20448;-76
2022/09/22 08:12:46;;;;;;;24.55;17.75;;;11.80;99.90;;;;;;5055342;28;20376;-77
2022/09/22 08:15:11;;;;;;;21.42;17.85;;;11.80;99.90;;;;;;5056451;28;20029;-78
2022/09/22 08:17:39;;;;;;;22.13;18.00;;;11.80;99.90;;;;;;5056349;28;20102;-76
2022/09/22 08:20:06;;;;;;;20.90;18.58;;;11.90;99.90;;;;;;5055237;28;20400;-77
2022/09/22 08:22:32;;;;;;;21.67;19.17;;;12.00;99.90;;;;;;5055671;28;20064;-76
2022/09/22 08:24:57;;;;;;;20.77;18.60;;;12.00;99.90;;;;;;5059818;28;20021;-78
2022/09/22 08:27:24;;;;;;;22.67;18.95;;;12.10;99.90;;;;;;5061415;28;20048;-78
2022/09/22 08:29:50;;;;;;;25.67;19.67;;;12.10;99.90;;;;;;5062430;28;20013;-78
2022/09/22 08:32:18;;;;;;;31.25;19.58;;;12.20;99.90;;;;;;5064247;28;20021;-79
2022/09/22 08:34:44;;;;;;;22.20;18.67;;;12.30;99.90;;;;;;5062687;28;20052;-76
2022/09/22 08:37:10;;;;;;;21.83;16.50;;;12.30;99.90;;;;;;5068768;28;20021;-77
2022/09/22 08:39:35;;;;;;;19.05;17.15;;;12.40;99.90;;;;;;5054800;28;20504;-77
2022/09/22 08:42:17;;;;;;;22.70;18.25;;;12.60;99.90;;;;;;5047031;28;20042;-77
2022/09/22 08:44:53;;;;;;;22.38;19.05;;;12.70;99.90;;;;;;5047999;28;20380;-77
2022/09/22 08:53:22;;;;;;;24.83;16.75;;;13.00;99.90;;;;;;5043283;28;20100;-77
2022/09/22 08:56:02;;;;;;;23.35;16.48;;;13.40;99.90;;;;;;5047302;28;20048;-76
2022/09/22 08:58:49;;;;;;;16.90;15.13;;;13.20;99.90;;;;;;5040196;28;20021;-76
2022/09/22 09:01:33;;;;;;;17.90;13.23;;;13.30;99.90;;;;;;5033625;28;20037;-77
2022/09/22 09:04:41;;;;;;;14.10;12.23;;;13.40;99.90;;;;;;5051990;28;20067;-77
2022/09/22 09:07:21;;;;;;;13.82;11.85;;;13.50;99.90;;;;;;5045707;28;20025;-77
2022/09/22 09:10:01;;;;;;;14.10;12.65;;;13.60;99.90;;;;;;5048332;28;20385;-75
2022/09/22 09:12:51;;;;;;;13.77;12.40;;;13.80;99.90;;;;;;5040056;28;20048;-76
2022/09/22 09:15:46;;;;;;;16.98;12.88;;;13.80;99.90;;;;;;5032977;28;20049;-77
2022/09/22 09:18:19;;;;;;;11.25;9.73;;;13.90;99.90;;;;;;5034032;28;20034;-76
2022/09/22 09:20:47;;;;;;;11.52;9.57;;;14.00;99.90;;;;;;5035419;28;20033;-78
2022/09/22 09:23:16;;;;;;;12.38;11.18;;;14.10;99.90;;;;;;5036255;28;20022;-78
2022/09/22 09:25:45;;;;;;;12.35;10.82;;;14.20;99.90;;;;;;5032964;28;20030;-77
2022/09/22 09:28:40;;;;;;;16.42;12.10;;;14.30;99.90;;;;;;5043676;28;20056;-77
2022/09/22 09:31:42;;;;;;;12.80;11.32;;;14.30;99.90;;;;;;5041480;28;20021;-78
2022/09/22 09:34:20;;;;;;;12.20;9.52;;;14.40;99.90;;;;;;5050789;28;20503;-76
2022/09/22 09:36:53;;;;;;;12.63;10.52;;;14.50;99.90;;;;;;5047600;28;20311;-76
2022/09/22 09:39:31;;;;;;;9.80;8.90;;;14.60;99.90;;;;;;5048701;28;20108;-76
2022/09/22 09:41:59;;;;;;;9.60;8.80;;;14.60;99.90;;;;;;5044660;28;20488;-75
2022/09/22 09:44:34;;;;;;;9.70;8.77;;;14.60;99.90;;;;;;5047621;28;20126;-78
2022/09/22 09:47:40;;;;;;;11.13;9.15;;;14.80;99.90;;;;;;5053657;28;20017;-76
2022/09/22 09:50:09;;;;;;;10.18;9.18;;;14.90;99.90;;;;;;5048815;28;20037;-77
2022/09/22 09:52:37;;;;;;;13.30;9.18;;;14.90;99.90;;;;;;5042136;28;20073;-76
2022/09/22 09:55:15;;;;;;;10.13;8.52;;;15.00;99.90;;;;;;5044537;28;20029;-77
2022/09/22 09:58:08;;;;;;;9.60;8.70;;;15.10;99.90;;;;;;5048294;28;20024;-77
2022/09/22 10:00:51;;;;;;;8.50;7.82;;;15.20;99.90;;;;;;5045394;28;20025;-77
2022/09/22 10:03:31;;;;;;;8.80;7.97;;;15.20;99.90;;;;;;5037338;28;20469;-76
2022/09/22 10:06:09;;;;;;;9.15;7.60;;;15.40;99.90;;;;;;5050469;28;20048;-76
2022/09/22 10:09:01;;;;;;;14.73;10.35;;;15.40;99.90;;;;;;5052759;28;20064;-76
2022/09/22 10:11:31;;;;;;;9.18;8.38;;;15.50;99.90;;;;;;5049606;28;20037;-76
2022/09/22 10:13:57;;;;;;;8.67;7.77;;;15.60;99.90;;;;;;5053629;28;20141;-74
2022/09/22 10:16:25;;;;;;;10.40;9.48;;;15.60;99.90;;;;;;5039314;28;20263;-77
2022/09/22 10:19:27;;;;;;;9.80;8.82;;;15.70;99.90;;;;;;5049202;28;20026;-75
2022/09/22 10:22:21;;;;;;;9.00;8.18;;;15.80;99.90;;;;;;5049828;28;20025;-76
2022/09/22 10:25:00;;;;;;;8.43;7.50;;;15.80;99.90;;;;;;5046849;28;20021;-76
2022/09/22 10:27:28;;;;;;;13.65;8.43;;;15.90;99.90;;;;;;5050749;28;20056;-77
2022/09/22 10:30:12;;;;;;;9.85;6.55;;;15.90;99.90;;;;;;5049110;28;20029;-78
2022/09/22 10:32:37;;;;;;;10.45;7.38;;;16.00;99.90;;;;;;5046542;28;20384;-76
2022/09/22 10:35:43;;;;;;;10.75;7.05;;;16.00;99.90;;;;;;5049100;28;20028;-76
2022/09/22 10:38:17;;;;;;;6.72;5.72;;;16.10;99.90;;;;;;5030115;28;20048;-74
2022/09/22 10:40:54;;;;;;;5.95;4.60;;;16.20;99.90;;;;;;5030852;28;20041;-75
2022/09/22 10:43:55;;;;;;;6.32;5.55;;;16.30;99.90;;;;;;5032635;28;20021;-75
2022/09/22 10:46:51;;;;;;;6.15;5.18;;;16.40;99.90;;;;;;5031579;28;20056;-74
2022/09/22 10:49:27;;;;;;;7.10;6.15;;;16.40;99.90;;;;;;5031872;28;20061;-74
2022/09/22 10:52:17;;;;;;;9.70;6.18;;;16.50;99.90;;;;;;5032003;28;20443;-74
2022/09/22 10:55:06;;;;;;;5.00;4.45;;;16.70;99.90;;;;;;5031388;28;20460;-74
2022/09/22 10:58:07;;;;;;;6.13;4.50;;;16.70;99.90;;;;;;5035110;28;20030;-75
2022/09/22 11:00:38;;;;;;;5.75;5.20;;;16.80;99.90;;;;;;5031444;28;20025;-74
2022/09/22 11:03:33;;;;;;;12.25;5.93;;;16.90;99.90;;;;;;5032662;28;20083;-75
2022/09/22 11:12:39;;;;;;;7.57;5.72;;;17.10;99.90;;;;;;5030863;28;20091;-74
2022/09/22 11:15:04;;;;;;;5.28;4.57;;;17.20;99.90;;;;;;5030293;28;20033;-74
2022/09/22 11:18:07;;;;;;;7.47;4.72;;;17.20;99.90;;;;;;5030355;28;20028;-75
2022/09/22 11:20:51;;;;;;;5.50;3.97;;;17.20;99.90;;;;;;5030310;28;20493;-74
2022/09/22 11:23:55;;;;;;;4.35;3.83;;;17.30;99.90;;;;;;5031450;28;20373;-74
2022/09/22 11:27:00;;;;;;;6.10;3.60;;;17.40;99.90;;;;;;5031541;28;20025;-74
2022/09/22 11:29:45;;;;;;;3.65;3.35;;;17.40;99.90;;;;;;5029472;28;20758;-75
2022/09/22 11:32:13;;;;;;;5.18;3.67;;;17.40;99.90;;;;;;5032880;28;20488;-75
2022/09/22 11:34:58;;;;;;;6.00;3.10;;;17.40;99.90;;;;;;5048755;28;20017;-75
2022/09/22 11:37:45;;;;;;;3.13;2.92;;;17.40;99.90;;;;;;5043499;28;20021;-75
2022/09/22 11:40:31;;;;;;;6.35;2.42;;;17.50;99.90;;;;;;5042211;28;20393;-74
2022/09/22 11:43:16;;;;;;;5.07;2.35;;;17.60;99.90;;;;;;5039100;28;20013;-75
2022/09/22 11:45:45;;;;;;;3.83;2.05;;;17.70;99.90;;;;;;5049472;28;20025;-75
2022/09/22 11:48:22;;;;;;;3.03;2.25;;;17.80;99.90;;;;;;5052309;28;20017;-76
2022/09/22 11:51:20;;;;;;;2.05;1.85;;;17.80;99.90;;;;;;5051348;28;20025;-76
2022/09/22 11:54:04;;;;;;;4.65;2.60;;;17.80;99.90;;;;;;5051287;28;20032;-74
2022/09/22 11:56:38;;;;;;;3.08;2.55;;;17.90;99.90;;;;;;5051583;28;20028;-75
2022/09/22 11:59:32;;;;;;;3.40;1.75;;;18.00;99.80;;;;;;5046342;28;20034;-75
2022/09/22 12:02:03;;;;;;;2.25;1.98;;;18.00;99.20;;;;;;5041107;28;20033;-74
2022/09/22 12:04:38;;;;;;;2.10;1.90;;;18.20;97.80;;;;;;5048910;28;20558;-75
2022/09/22 12:07:16;;;;;;;4.35;1.42;;;18.10;98.10;;;;;;5052553;28;20033;-74
2022/09/22 12:09:55;;;;;;;1.73;1.55;;;18.20;98.00;;;;;;5052576;28;20731;-75
2022/09/22 12:12:23;;;;;;;2.75;1.60;;;18.20;98.20;;;;;;5052396;28;20031;-75
2022/09/22 12:15:14;;;;;;;3.72;1.80;;;18.30;97.30;;;;;;5050880;28;20024;-74
2022/09/22 12:17:50;;;;;;;3.13;1.65;;;18.40;97.60;;;;;;5052313;28;20663;-74
2022/09/22 12:20:51;;;;;;;4.28;1.90;;;18.40;97.80;;;;;;5051776;28;20045;-74
2022/09/22 12:23:34;;;;;;;5.18;1.70;;;18.50;97.30;;;;;;5050626;28;20041;-73
2022/09/22 12:26:08;;;;;;;3.47;1.80;;;18.50;97.90;;;;;;5047915;28;20441;-74
2022/09/22 12:28:41;;;;;;;3.10;1.77;;;18.70;97.90;;;;;;5056177;28;20095;-74
2022/09/22 12:31:14;;;;;;;1.70;1.60;;;18.70;97.30;;;;;;5047989;28;20037;-74
2022/09/22 12:33:54;;;;;;;2.20;1.80;;;18.90;96.50;;;;;;5049572;28;20025;-74
2022/09/22 12:36:39;;;;;;;1.60;1.50;;;18.90;96.10;;;;;;5059189;28;20025;-75
2022/09/22 12:39:11;;;;;;;1.58;1.42;;;18.80;96.30;;;;;;5058593;28;20088;-75
2022/09/22 12:41:48;;;;;;;2.33;1.45;;;18.80;96.20;;;;;;5051829;28;20029;-74
2022/09/22 12:44:18;;;;;;;2.25;1.60;;;19.00;96.30;;;;;;5049641;28;20048;-74
2022/09/22 12:46:44;;;;;;;2.70;1.85;;;19.10;97.00;;;;;;5042527;28;20048;-74
2022/09/22 12:49:21;;;;;;;3.42;1.48;;;19.20;96.00;;;;;;5047924;28;20075;-74
2022/09/22 12:51:46;;;;;;;2.63;1.50;;;19.20;96.00;;;;;;5043865;28;20083;-73
2022/09/22 12:54:36;;;;;;;5.13;1.70;;;19.30;96.00;;;;;;5047347;28;20029;-74
2022/09/22 12:57:08;;;;;;;5.38;1.90;;;19.40;95.60;;;;;;5049108;28;20064;-74
2022/09/22 12:59:36;;;;;;;3.40;1.77;;;19.40;95.50;;;;;;5050818;28;20044;-75
2022/09/22 13:02:14;;;;;;;3.22;1.70;;;19.50;95.50;;;;;;5052382;28;20029;-74
2022/09/22 13:04:57;;;;;;;2.45;1.20;;;19.60;95.40;;;;;;5039338;28;20488;-74
2022/09/22 13:07:37;;;;;;;1.73;1.60;;;19.60;95.50;;;;;;5051096;28;20025;-74
2022/09/22 13:10:26;;;;;;;;;;;19.60;94.80;;;;;;5053616;28;20029;-74
2022/09/22 13:13:08;;;;;;;3.88;1.50;;;19.70;95.40;;;;;;5052961;28;19909;-73
2022/09/22 13:15:48;;;;;;;4.57;1.30;;;19.70;95.10;;;;;;5040215;28;20108;-73
2022/09/22 13:18:36;;;;;;;2.30;1.25;;;19.70;93.50;;;;;;5040945;28;20055;-74
2022/09/22 13:21:13;;;;;;;3.08;1.45;;;19.80;94.60;;;;;;5037788;28;20091;-74
2022/09/22 13:23:54;;;;;;;4.57;1.30;;;19.80;94.90;;;;;;5042933;28;20034;-73
2022/09/22 13:26:27;;;;;;;2.10;1.63;;;19.90;95.00;;;;;;5033078;28;20354;-74
2022/09/22 13:29:04;;;;;;;1.58;1.30;;;20.00;93.70;;;;;;5033344;28;20452;-75